Time;durP1;ratioP1;P1;durP2;ratioP2;P2;SDS_P1;SDS_P2;PMS_P1;PMS_P2;Temp;Humidity;BMP_temperature;BMP_pressure;BME280_temperature;BME280_humidity;BME280_pressure;Samples;Min_cycle;Max_cycle;Signal;HPM_P1;HPM_P2
2024/03/09 00:00:40;;;;;;;74.38;34.05;;;6.50;99.90;;;;;;5022239;28;20093;-64
2024/03/09 00:03:11;;;;;;;70.13;32.90;;;6.40;99.90;;;;;;5022491;28;20033;-66
2024/03/09 00:05:39;;;;;;;66.90;31.05;;;6.40;99.90;;;;;;5025184;28;20034;-65
2024/03/09 00:08:07;;;;;;;61.60;30.10;;;6.40;99.90;;;;;;5033505;28;20045;-67
2024/03/09 00:10:34;;;;;;;65.72;29.38;;;6.40;99.90;;;;;;5022771;28;20037;-70
2024/03/09 00:13:00;;;;;;;65.97;28.85;;;6.50;99.90;;;;;;5026326;28;20042;-65
2024/03/09 00:15:28;;;;;;;70.57;32.67;;;6.40;99.90;;;;;;5022707;28;20271;-66
2024/03/09 00:17:55;;;;;;;63.35;28.83;;;6.40;99.90;;;;;;5023562;28;20045;-68
2024/03/09 00:20:34;;;;;;;59.60;28.90;;;6.40;99.90;;;;;;5017530;28;20064;-68
2024/03/09 00:23:01;;;;;;;61.40;27.52;;;6.40;99.90;;;;;;5018491;28;20116;-68
2024/03/09 00:25:28;;;;;;;62.17;29.05;;;6.40;99.90;;;;;;5004874;28;20341;-67
2024/03/09 00:27:55;;;;;;;55.70;28.23;;;6.30;99.90;;;;;;5022037;28;20068;-68
2024/03/09 00:30:22;;;;;;;54.85;27.17;;;;;;;;;;5024867;28;20103;-67
2024/03/09 00:32:48;;;;;;;60.30;27.38;;;;;;;;;;5023934;28;20270;-67
2024/03/09 00:35:14;;;;;;;57.13;28.17;;;;;;;;;;5022809;28;20033;-67
2024/03/09 00:37:43;;;;;;;58.97;27.17;;;6.40;99.90;;;;;;5020290;28;20049;-67
2024/03/09 00:40:09;;;;;;;54.22;25.45;;;6.50;99.90;;;;;;5020071;28;20353;-67
2024/03/09 00:42:37;;;;;;;53.30;26.08;;;6.50;99.90;;;;;;5001919;28;20038;-67
2024/03/09 00:45:04;;;;;;;51.95;26.15;;;6.50;99.90;;;;;;5022412;28;20030;-67
2024/03/09 00:47:35;;;;;;;50.50;24.67;;;6.50;99.90;;;;;;5024712;28;20045;-68
2024/03/09 00:50:07;;;;;;;54.63;25.27;;;6.40;99.90;;;;;;5021923;28;20037;-66
2024/03/09 00:52:34;;;;;;;52.17;25.48;;;6.50;99.90;;;;;;5025125;28;20281;-70
2024/03/09 00:55:00;;;;;;;51.88;25.73;;;6.50;99.90;;;;;;5025023;28;20034;-66
2024/03/09 00:57:25;;;;;;;50.55;25.42;;;6.50;99.90;;;;;;5021472;28;20030;-66
2024/03/09 00:59:55;;;;;;;51.15;23.90;;;;;;;;;;5009356;28;20134;-66
2024/03/09 01:02:21;;;;;;;45.65;22.65;;;6.30;99.90;;;;;;5021503;28;20037;-67
2024/03/09 01:04:50;;;;;;;45.63;24.00;;;6.60;99.90;;;;;;5023183;28;20034;-68
2024/03/09 01:07:16;;;;;;;44.35;23.35;;;;;;;;;;5030500;28;20060;-66
2024/03/09 01:09:47;;;;;;;47.95;25.33;;;;;;;;;;5034699;28;20038;-67
2024/03/09 01:12:15;;;;;;;54.58;25.10;;;6.30;99.90;;;;;;5005883;28;20035;-68
2024/03/09 01:14:40;;;;;;;40.92;22.45;;;6.20;99.90;;;;;;5024544;28;20241;-69
2024/03/09 01:17:06;;;;;;;50.10;25.38;;;;;;;;;;5022923;28;20038;-68
2024/03/09 01:19:32;;;;;;;45.35;22.52;;;5.90;99.90;;;;;;5026792;28;20356;-68
2024/03/09 01:22:05;;;;;;;49.78;23.70;;;;;;;;;;5022568;28;20038;-67
2024/03/09 01:24:32;;;;;;;47.60;23.75;;;;;;;;;;5024954;28;20245;-67
2024/03/09 01:26:58;;;;;;;50.30;25.63;;;5.80;99.90;;;;;;5023194;28;20030;-67
2024/03/09 01:29:24;;;;;;;51.65;25.48;;;5.80;99.90;;;;;;5023462;28;20064;-66
2024/03/09 01:31:51;;;;;;;50.03;25.38;;;6.10;99.90;;;;;;5025763;28;20242;-68
2024/03/09 01:34:17;;;;;;;51.70;25.88;;;;;;;;;;5024738;28;20038;-68
2024/03/09 01:36:45;;;;;;;48.58;23.73;;;5.80;99.90;;;;;;5024136;28;20061;-69
2024/03/09 01:39:14;;;;;;;49.20;25.23;;;5.80;99.90;;;;;;5022468;28;20037;-68
2024/03/09 01:41:40;;;;;;;52.70;23.77;;;;;;;;;;5024115;28;20030;-68
2024/03/09 01:44:09;;;;;;;40.85;22.42;;;5.90;99.90;;;;;;5022481;28;20364;-67
2024/03/09 01:46:35;;;;;;;46.03;22.30;;;5.80;99.90;;;;;;5021796;28;20100;-68
2024/03/09 01:49:01;;;;;;;48.05;23.73;;;5.80;99.90;;;;;;5022161;28;20084;-67
2024/03/09 01:51:27;;;;;;;44.15;23.73;;;5.80;99.90;;;;;;4998105;28;20048;-67
2024/03/09 01:53:53;;;;;;;42.60;22.60;;;5.70;99.90;;;;;;5023858;28;20034;-67
2024/03/09 01:56:22;;;;;;;44.25;23.77;;;5.90;99.90;;;;;;5023067;28;20034;-68
2024/03/09 01:58:48;;;;;;;42.58;21.15;;;5.70;99.90;;;;;;5021901;28;20591;-67
2024/03/09 02:01:24;;;;;;;44.83;22.27;;;5.50;99.90;;;;;;5022168;28;20053;-68
2024/03/09 02:03:54;;;;;;;41.63;20.90;;;5.80;99.90;;;;;;5021782;28;20030;-68
2024/03/09 02:06:21;;;;;;;41.47;20.60;;;5.40;99.90;;;;;;5023977;28;20067;-68
2024/03/09 02:08:48;;;;;;;49.05;21.67;;;5.40;99.90;;;;;;5023993;28;20037;-70
2024/03/09 02:11:14;;;;;;;43.20;22.05;;;5.50;99.90;;;;;;5025729;28;20026;-68
2024/03/09 02:13:41;;;;;;;43.55;21.98;;;5.40;99.90;;;;;;5025752;28;20033;-68
2024/03/09 02:16:07;;;;;;;42.00;20.35;;;5.30;99.90;;;;;;5021529;28;20046;-67
2024/03/09 02:18:33;;;;;;;50.70;23.27;;;5.20;99.90;;;;;;5028497;28;20037;-68
2024/03/09 02:21:00;;;;;;;40.70;20.33;;;5.00;99.90;;;;;;5023742;28;20330;-67
2024/03/09 02:23:32;;;;;;;45.78;21.77;;;5.00;99.90;;;;;;5024623;28;20108;-68
2024/03/09 02:26:01;;;;;;;44.05;22.60;;;4.90;99.90;;;;;;5021314;28;20046;-68
2024/03/09 02:28:30;;;;;;;41.95;21.42;;;4.80;99.90;;;;;;5026197;28;20025;-68
2024/03/09 02:30:56;;;;;;;47.95;22.33;;;4.70;99.90;;;;;;5024354;28;20038;-69
2024/03/09 02:33:21;;;;;;;45.47;21.83;;;4.70;99.90;;;;;;5032562;28;20033;-70
2024/03/09 02:35:47;;;;;;;47.30;21.70;;;4.40;99.90;;;;;;5026335;28;20257;-69
2024/03/09 02:38:14;;;;;;;40.17;19.67;;;4.30;99.90;;;;;;5026111;28;20065;-69
2024/03/09 02:40:40;;;;;;;43.42;20.85;;;4.30;99.90;;;;;;5032179;28;20040;-71
2024/03/09 02:43:07;;;;;;;48.10;22.15;;;4.30;99.90;;;;;;5030328;28;20033;-69
2024/03/09 02:45:33;;;;;;;45.63;21.35;;;4.30;99.90;;;;;;5023350;28;20061;-68
2024/03/09 02:47:59;;;;;;;43.53;21.20;;;4.20;99.90;;;;;;5021808;28;20083;-68
2024/03/09 02:50:26;;;;;;;45.88;22.90;;;4.10;99.90;;;;;;5037609;28;20037;-66
2024/03/09 02:52:53;;;;;;;46.03;21.73;;;4.20;99.90;;;;;;5019892;28;20254;-66
2024/03/09 02:55:19;;;;;;;37.95;18.77;;;4.10;99.90;;;;;;5021228;28;20272;-68
2024/03/09 02:57:46;;;;;;;42.20;21.95;;;;;;;;;;5021211;28;20349;-67
2024/03/09 03:00:13;;;;;;;49.03;21.73;;;4.00;99.90;;;;;;5029784;28;20045;-67
2024/03/09 03:05:24;;;;;;;42.53;20.23;;;4.10;99.90;;;;;;5031381;28;20091;-68
2024/03/09 03:07:51;;;;;;;52.13;23.73;;;3.90;99.90;;;;;;5007231;28;20204;-70
2024/03/09 03:10:18;;;;;;;49.50;23.05;;;4.10;99.90;;;;;;5017982;28;20038;-70
2024/03/09 03:12:47;;;;;;;59.83;23.60;;;4.40;99.90;;;;;;5024492;28;20025;-68
2024/03/09 03:15:13;;;;;;;48.25;23.98;;;4.40;99.90;;;;;;5025043;28;20026;-68
2024/03/09 03:17:38;;;;;;;46.00;22.00;;;5.00;99.90;;;;;;5025378;28;20093;-69
2024/03/09 03:20:06;;;;;;;51.15;24.88;;;4.80;99.90;;;;;;5022487;28;20065;-68
2024/03/09 03:22:32;;;;;;;53.25;24.48;;;4.70;99.90;;;;;;5022532;28;20056;-70
2024/03/09 03:24:58;;;;;;;50.80;23.17;;;5.10;99.90;;;;;;5027892;28;20025;-70
2024/03/09 03:27:24;;;;;;;51.55;24.33;;;5.10;99.90;;;;;;5032853;28;20059;-71
2024/03/09 03:29:51;;;;;;;47.08;23.23;;;5.10;99.90;;;;;;5029063;28;20033;-69
2024/03/09 03:32:17;;;;;;;53.72;24.50;;;5.10;99.90;;;;;;5035122;28;20037;-68
2024/03/09 03:34:43;;;;;;;49.47;23.27;;;5.10;99.90;;;;;;5028797;28;20033;-69
2024/03/09 03:37:09;;;;;;;46.15;23.40;;;5.10;99.90;;;;;;5034778;28;20087;-69
2024/03/09 03:39:37;;;;;;;49.05;23.58;;;5.10;99.90;;;;;;5026599;28;20068;-72
2024/03/09 03:42:03;;;;;;;49.85;24.00;;;5.20;99.90;;;;;;5028751;28;20041;-69
2024/03/09 03:44:33;;;;;;;54.90;25.55;;;5.30;99.90;;;;;;5022505;28;20314;-71
2024/03/09 03:46:58;;;;;;;;;;;5.30;99.90;;;;;;5036196;28;20048;-70
2024/03/09 03:49:25;;;;;;;44.70;22.85;;;5.50;99.90;;;;;;5033319;28;19916;-69
2024/03/09 03:51:50;;;;;;;45.05;23.15;;;5.30;99.90;;;;;;5031112;28;20067;-68
2024/03/09 03:54:16;;;;;;;47.20;25.10;;;5.20;99.90;;;;;;5022197;28;20038;-68
2024/03/09 03:56:42;;;;;;;49.00;23.40;;;;;;;;;;5020778;28;20018;-69
2024/03/09 03:59:09;;;;;;;51.05;25.15;;;5.10;99.90;;;;;;5020654;28;20326;-70
2024/03/09 04:01:35;;;;;;;46.22;23.73;;;5.10;99.90;;;;;;5020324;28;20318;-68
2024/03/09 04:04:00;;;;;;;48.58;24.08;;;4.80;99.90;;;;;;5020179;28;20030;-68
2024/03/09 04:06:26;;;;;;;49.50;23.48;;;4.70;99.90;;;;;;5023326;28;20029;-69
2024/03/09 04:08:52;;;;;;;47.28;22.10;;;4.80;99.90;;;;;;5019787;28;20041;-69
2024/03/09 04:11:18;;;;;;;44.67;20.92;;;;;;;;;;5023938;28;20048;-69
2024/03/09 04:13:49;;;;;;;45.55;22.98;;;4.50;99.90;;;;;;5020233;28;20080;-70
2024/03/09 04:16:15;;;;;;;50.00;22.70;;;;;;;;;;5007258;28;20038;-69
2024/03/09 04:18:40;;;;;;;50.60;23.17;;;4.30;99.90;;;;;;5019476;28;20072;-68
2024/03/09 04:21:07;;;;;;;52.10;23.77;;;4.30;99.90;;;;;;5019628;28;20487;-68
2024/03/09 04:23:35;;;;;;;52.00;24.27;;;4.30;99.90;;;;;;5018347;28;20373;-69
2024/03/09 04:26:01;;;;;;;57.00;25.60;;;4.30;99.90;;;;;;5027949;28;20065;-68
2024/03/09 04:28:27;;;;;;;55.10;25.13;;;4.60;99.90;;;;;;5021799;28;20029;-70
2024/03/09 04:30:54;;;;;;;54.13;24.98;;;4.10;99.90;;;;;;5020111;28;20076;-69
2024/03/09 04:33:21;;;;;;;52.70;25.48;;;4.10;99.90;;;;;;5019773;28;20341;-68
2024/03/09 04:35:50;;;;;;;56.40;24.83;;;4.10;99.90;;;;;;5019888;28;20034;-67
2024/03/09 04:38:16;;;;;;;62.20;27.95;;;4.00;99.90;;;;;;5022498;28;20314;-70
2024/03/09 04:40:43;;;;;;;65.38;27.75;;;3.90;99.90;;;;;;5020347;28;20041;-71
2024/03/09 04:43:12;;;;;;;63.42;27.15;;;4.10;99.90;;;;;;5023842;28;20345;-70
2024/03/09 04:45:38;;;;;;;58.33;25.58;;;3.90;99.90;;;;;;5021707;28;20207;-71
2024/03/09 04:48:04;;;;;;;72.75;30.33;;;4.00;99.90;;;;;;5018505;28;20045;-70
2024/03/09 04:50:33;;;;;;;73.70;31.02;;;3.80;99.90;;;;;;5024539;28;20098;-67
2024/03/09 04:52:59;;;;;;;67.03;28.67;;;3.90;99.90;;;;;;5022651;28;20026;-66
2024/03/09 04:55:28;;;;;;;61.28;28.20;;;;;;;;;;5021988;28;20564;-71
2024/03/09 04:57:54;;;;;;;70.00;30.65;;;3.60;99.90;;;;;;5022747;28;20040;-68
2024/03/09 05:00:21;;;;;;;71.10;29.52;;;;;;;;;;5023900;28;20033;-67
2024/03/09 05:02:49;;;;;;;75.47;32.20;;;3.80;99.90;;;;;;5016367;28;20029;-70
2024/03/09 05:05:17;;;;;;;86.97;34.03;;;3.80;99.90;;;;;;5022427;28;20132;-69
2024/03/09 05:07:50;;;;;;;75.53;30.70;;;3.90;99.90;;;;;;5022028;28;20139;-66
2024/03/09 05:10:19;;;;;;;78.97;32.80;;;4.00;99.90;;;;;;5022516;28;20065;-67
2024/03/09 05:12:53;;;;;;;77.80;32.42;;;4.00;99.90;;;;;;5022332;28;20052;-68
2024/03/09 05:15:20;;;;;;;82.72;33.33;;;4.00;99.90;;;;;;5024116;28;20337;-67
2024/03/09 05:17:46;;;;;;;73.75;31.38;;;3.90;99.90;;;;;;5024110;28;20293;-68
2024/03/09 05:20:14;;;;;;;85.07;32.40;;;4.00;99.90;;;;;;5021863;28;20018;-69
2024/03/09 05:22:40;;;;;;;89.28;34.55;;;3.60;99.90;;;;;;5023988;28;20052;-69
2024/03/09 05:25:13;;;;;;;82.03;33.10;;;4.20;99.90;;;;;;5024127;28;20099;-69
2024/03/09 05:27:42;;;;;;;98.55;34.88;;;4.10;99.90;;;;;;5019985;28;20258;-67
2024/03/09 05:30:15;;;;;;;87.95;35.28;;;4.30;99.90;;;;;;5028644;28;20041;-67
2024/03/09 05:32:50;;;;;;;79.03;33.25;;;4.40;99.90;;;;;;5030777;28;20037;-73
2024/03/09 05:35:17;;;;;;;86.75;34.35;;;4.50;99.90;;;;;;5027984;28;20045;-67
2024/03/09 05:37:43;;;;;;;82.45;35.05;;;4.30;99.90;;;;;;5023080;28;20102;-69
2024/03/09 05:40:10;;;;;;;83.68;36.33;;;4.70;99.90;;;;;;5025400;28;20045;-69
2024/03/09 05:42:37;;;;;;;89.28;39.50;;;4.60;99.90;;;;;;5024937;28;20045;-68
2024/03/09 05:45:09;;;;;;;87.03;36.80;;;4.70;99.90;;;;;;5025416;28;20318;-66
2024/03/09 05:47:36;;;;;;;85.78;35.42;;;5.20;99.90;;;;;;5029363;28;20046;-67
2024/03/09 05:50:03;;;;;;;82.75;35.72;;;4.80;99.90;;;;;;5030161;28;20113;-66
2024/03/09 05:52:28;;;;;;;76.25;33.65;;;4.90;99.90;;;;;;5029414;28;20057;-66
2024/03/09 05:54:54;;;;;;;74.72;34.55;;;5.00;99.90;;;;;;5025128;28;20041;-67
2024/03/09 05:57:22;;;;;;;82.78;34.90;;;4.90;99.90;;;;;;5025230;28;20030;-67
2024/03/09 05:59:49;;;;;;;80.97;35.17;;;5.00;99.90;;;;;;5019435;28;20067;-68
2024/03/09 06:02:15;;;;;;;86.20;36.20;;;5.00;99.90;;;;;;5034087;28;20037;-68
2024/03/09 06:04:41;;;;;;;79.70;37.40;;;5.00;99.90;;;;;;5025350;28;20317;-67
2024/03/09 06:07:06;;;;;;;88.47;39.15;;;5.00;99.90;;;;;;5024351;28;20333;-67
2024/03/09 06:09:32;;;;;;;86.65;38.78;;;5.10;99.90;;;;;;5032899;28;20033;-69
2024/03/09 06:11:58;;;;;;;85.38;39.03;;;5.10;99.90;;;;;;5030262;28;20025;-68
2024/03/09 06:14:26;;;;;;;82.45;35.28;;;5.10;99.90;;;;;;5027787;28;20076;-69
2024/03/09 06:16:52;;;;;;;91.18;39.53;;;5.20;99.90;;;;;;5025589;28;20045;-68
2024/03/09 06:19:23;;;;;;;72.85;33.40;;;5.20;99.90;;;;;;5025273;28;20038;-66
2024/03/09 06:21:51;;;;;;;85.45;35.70;;;5.30;99.90;;;;;;5017004;28;20041;-67
2024/03/09 06:24:17;;;;;;;76.95;35.72;;;5.40;99.90;;;;;;5023204;28;20041;-67
2024/03/09 06:26:43;;;;;;;80.25;38.17;;;5.50;99.90;;;;;;5031952;28;20084;-67
2024/03/09 06:29:10;;;;;;;72.28;34.00;;;5.40;99.90;;;;;;5022716;28;20144;-68
2024/03/09 06:31:36;;;;;;;74.22;34.15;;;5.60;99.90;;;;;;5024523;28;20063;-68
2024/03/09 06:34:03;;;;;;;79.07;35.50;;;5.60;99.90;;;;;;5024408;28;20034;-68
2024/03/09 06:36:29;;;;;;;79.70;36.80;;;5.50;99.90;;;;;;5017869;28;20076;-65
2024/03/09 06:38:55;;;;;;;85.20;38.08;;;5.60;99.90;;;;;;5026246;28;20037;-67
2024/03/09 06:41:20;;;;;;;75.55;35.53;;;5.70;99.90;;;;;;5022231;28;20049;-68
2024/03/09 06:43:46;;;;;;;75.30;32.42;;;5.80;99.90;;;;;;5026800;28;20537;-68
2024/03/09 06:46:14;;;;;;;72.90;32.97;;;5.90;99.90;;;;;;5027136;28;20326;-68
2024/03/09 06:48:40;;;;;;;76.00;34.03;;;6.10;99.90;;;;;;5030190;28;20037;-68
2024/03/09 06:51:06;;;;;;;72.97;35.08;;;6.10;99.90;;;;;;5023623;28;20041;-65
2024/03/09 06:53:32;;;;;;;77.55;35.70;;;6.20;99.90;;;;;;5021048;28;20034;-65
2024/03/09 06:56:03;;;;;;;70.75;35.75;;;6.30;99.90;;;;;;5020941;28;20084;-65
2024/03/09 06:58:29;;;;;;;73.32;35.38;;;6.50;99.90;;;;;;5021036;28;20097;-65
2024/03/09 07:00:55;;;;;;;70.55;34.70;;;6.60;99.90;;;;;;5022837;28;20213;-68
2024/03/09 07:03:20;;;;;;;66.68;33.35;;;7.00;99.90;;;;;;5024643;28;20040;-66
2024/03/09 07:05:47;;;;;;;69.05;34.53;;;6.80;99.90;;;;;;5023056;28;20397;-66
2024/03/09 07:08:15;;;;;;;66.25;33.08;;;7.20;99.90;;;;;;5032918;28;20121;-66
2024/03/09 07:10:41;;;;;;;69.10;33.88;;;7.00;99.90;;;;;;5032965;28;20029;-67
2024/03/09 07:13:09;;;;;;;65.35;32.47;;;7.20;99.90;;;;;;5020604;28;20709;-65
2024/03/09 07:15:36;;;;;;;64.35;32.33;;;7.40;99.90;;;;;;5020117;28;20361;-66
2024/03/09 07:18:03;;;;;;;59.72;30.67;;;7.30;99.90;;;;;;5012081;28;20033;-65
2024/03/09 07:20:32;;;;;;;65.97;34.45;;;7.50;99.90;;;;;;5020215;28;20049;-66
2024/03/09 07:22:57;;;;;;;;;;;7.40;99.90;;;;;;5020899;28;20033;-65
2024/03/09 07:25:25;;;;;;;65.30;31.90;;;7.50;99.90;;;;;;5020139;28;19924;-65
2024/03/09 07:27:52;;;;;;;59.53;31.23;;;7.70;99.90;;;;;;5025971;28;20113;-65
2024/03/09 07:30:18;;;;;;;58.92;31.00;;;7.70;99.90;;;;;;5020125;28;20049;-65
2024/03/09 07:32:48;;;;;;;51.97;27.27;;;7.90;99.90;;;;;;5022387;28;20083;-65
2024/03/09 07:35:14;;;;;;;58.00;31.92;;;8.00;99.90;;;;;;5022522;28;20107;-64
2024/03/09 07:37:43;;;;;;;53.80;28.10;;;8.20;99.90;;;;;;5019881;28;20061;-66
2024/03/09 07:40:11;;;;;;;54.10;31.13;;;8.20;99.90;;;;;;5020382;28;20037;-65
2024/03/09 07:42:38;;;;;;;48.58;26.65;;;8.30;99.90;;;;;;5022305;28;20067;-64
2024/03/09 07:45:13;;;;;;;55.53;28.73;;;8.30;99.90;;;;;;5022075;28;20041;-65
2024/03/09 07:47:43;;;;;;;48.17;25.80;;;8.30;99.90;;;;;;5019711;28;20428;-65
2024/03/09 07:50:14;;;;;;;50.58;27.58;;;8.30;99.90;;;;;;5023103;28;20038;-67
2024/03/09 07:53:06;;;;;;;48.55;24.73;;;8.30;99.90;;;;;;5020267;28;20030;-65
2024/03/09 07:55:34;;;;;;;46.55;25.17;;;8.30;99.90;;;;;;5027965;28;20281;-64
2024/03/09 07:57:59;;;;;;;39.92;22.10;;;8.30;99.90;;;;;;5023411;28;20037;-64
2024/03/09 08:00:33;;;;;;;42.90;22.27;;;8.30;99.90;;;;;;5022056;28;20076;-64
2024/03/09 08:03:01;;;;;;;41.13;23.02;;;8.10;99.90;;;;;;5019663;28;20036;-64
2024/03/09 08:05:31;;;;;;;42.63;22.13;;;8.30;99.90;;;;;;5019656;28;20125;-64
2024/03/09 08:08:02;;;;;;;36.90;20.90;;;8.10;99.90;;;;;;5021968;28;20068;-65
2024/03/09 08:10:28;;;;;;;33.92;20.17;;;8.10;99.90;;;;;;5018007;28;20029;-64
2024/03/09 08:12:56;;;;;;;43.78;22.05;;;8.10;99.90;;;;;;5019543;28;20037;-64
2024/03/09 08:15:28;;;;;;;42.72;23.70;;;8.20;99.90;;;;;;5022027;28;20551;-65
2024/03/09 08:17:56;;;;;;;36.38;21.30;;;8.30;99.90;;;;;;5025743;28;20033;-64
2024/03/09 08:20:22;;;;;;;37.45;21.48;;;8.60;99.90;;;;;;5019221;28;20030;-64
2024/03/09 08:22:48;;;;;;;39.45;22.88;;;8.70;99.90;;;;;;5019466;28;20065;-64
2024/03/09 08:25:16;;;;;;;36.25;21.42;;;8.80;99.90;;;;;;5021567;28;20037;-64
2024/03/09 08:27:44;;;;;;;34.67;19.63;;;9.00;99.90;;;;;;5019045;28;20302;-67
2024/03/09 08:30:14;;;;;;;29.95;18.52;;;9.10;99.20;;;;;;5019354;28;20040;-67
2024/03/09 08:32:44;;;;;;;33.65;19.23;;;9.10;97.40;;;;;;5019315;28;20034;-65
2024/03/09 08:35:09;;;;;;;;;;;9.10;96.90;;;;;;5021217;28;20345;-65
2024/03/09 08:37:41;;;;;;;31.10;17.02;;;9.10;96.30;;;;;;5018718;28;19921;-66
2024/03/09 08:40:08;;;;;;;31.63;17.98;;;9.10;96.70;;;;;;5018967;28;20061;-65
2024/03/09 08:42:36;;;;;;;31.98;18.70;;;9.20;96.00;;;;;;5020719;28;20113;-64
2024/03/09 08:45:05;;;;;;;32.58;18.13;;;9.10;95.40;;;;;;5018927;28;20049;-65
2024/03/09 08:47:31;;;;;;;30.65;17.80;;;9.20;94.90;;;;;;5024304;28;20037;-65
2024/03/09 08:49:57;;;;;;;33.58;19.15;;;;;;;;;;5019212;28;20314;-65
2024/03/09 08:52:23;;;;;;;31.80;18.40;;;9.50;99.90;;;;;;5018959;28;20037;-67
2024/03/09 08:54:50;;;;;;;29.67;17.42;;;9.60;99.90;;;;;;5019205;28;20038;-65
2024/03/09 08:57:17;;;;;;;30.08;18.67;;;9.60;93.10;;;;;;5021568;28;20038;-66
2024/03/09 08:59:44;;;;;;;28.80;16.75;;;9.70;98.90;;;;;;5023577;28;20030;-66
2024/03/09 09:02:10;;;;;;;26.15;14.88;;;9.80;98.70;;;;;;5023073;28;20041;-65
2024/03/09 09:04:36;;;;;;;30.92;17.38;;;9.90;98.00;;;;;;5021181;28;20057;-66
2024/03/09 09:07:06;;;;;;;29.15;16.40;;;9.90;96.90;;;;;;5022981;28;20365;-65
2024/03/09 09:09:35;;;;;;;31.50;15.60;;;9.90;87.60;;;;;;5039180;28;20037;-65
2024/03/09 09:12:01;;;;;;;26.45;16.45;;;10.50;92.60;;;;;;5015858;28;20363;-65
2024/03/09 09:14:27;;;;;;;27.15;16.58;;;10.30;85.50;;;;;;5027900;28;20334;-65
2024/03/09 09:16:56;;;;;;;24.13;14.95;;;10.60;93.20;;;;;;5025006;28;20034;-67
2024/03/09 09:19:22;;;;;;;25.30;15.50;;;10.60;92.70;;;;;;5030608;28;20034;-67
2024/03/09 09:21:48;;;;;;;24.02;15.68;;;10.50;77.80;;;;;;5022604;28;20042;-67
2024/03/09 09:24:16;;;;;;;27.40;15.63;;;10.50;79.30;;;;;;5022678;28;20064;-67
2024/03/09 09:26:43;;;;;;;22.05;15.05;;;10.40;77.70;;;;;;5022382;28;20034;-67
2024/03/09 09:29:10;;;;;;;27.02;17.67;;;10.20;92.90;;;;;;5022345;28;20037;-67
2024/03/09 09:31:36;;;;;;;26.92;13.30;;;10.70;93.10;;;;;;5032947;28;20189;-69
2024/03/09 09:34:02;;;;;;;27.80;15.23;;;10.60;80.20;;;;;;5026833;28;20072;-68
2024/03/09 09:36:29;;;;;;;22.73;14.35;;;;;;;;;;5025426;28;20045;-68
2024/03/09 09:38:59;;;;;;;24.33;14.10;;;10.80;81.20;;;;;;5029115;28;20040;-69
2024/03/09 09:41:27;;;;;;;;;;;10.90;75.90;;;;;;5022332;28;20073;-66
2024/03/09 09:43:57;;;;;;;24.23;14.40;;;11.10;91.20;;;;;;5022165;28;20019;-67
2024/03/09 09:46:29;;;;;;;22.92;14.13;;;11.20;91.40;;;;;;5030176;28;20347;-66
2024/03/09 09:48:55;;;;;;;26.40;14.25;;;11.30;90.80;;;;;;5022243;28;20057;-67
2024/03/09 09:51:25;;;;;;;22.65;14.48;;;11.40;90.60;;;;;;5024720;28;20176;-68
2024/03/09 09:53:58;;;;;;;17.13;11.32;;;11.50;90.30;;;;;;5025702;28;20038;-67
2024/03/09 09:56:23;;;;;;;20.50;12.48;;;11.50;72.60;;;;;;5027869;28;20037;-67
2024/03/09 09:58:49;;;;;;;21.90;14.23;;;11.40;71.40;;;;;;5020628;28;20042;-68
2024/03/09 10:01:20;;;;;;;22.52;14.48;;;11.40;72.40;;;;;;5022136;28;20033;-69
2024/03/09 10:03:47;;;;;;;22.38;13.95;;;11.80;91.40;;;;;;5026922;28;20233;-67
2024/03/09 10:06:21;;;;;;;25.45;13.82;;;11.70;71.20;;;;;;5023366;28;20037;-68
2024/03/09 10:08:51;;;;;;;21.35;14.40;;;12.40;88.10;;;;;;5033988;28;20045;-67
2024/03/09 10:11:17;;;;;;;21.92;14.68;;;12.10;69.10;;;;;;5025986;28;20071;-67
2024/03/09 10:13:46;;;;;;;23.67;14.52;;;12.20;68.10;;;;;;5023854;28;20061;-68
2024/03/09 10:16:16;;;;;;;24.77;14.27;;;12.40;86.30;;;;;;5021360;28;20037;-70
2024/03/09 10:18:43;;;;;;;20.92;13.05;;;12.40;85.80;;;;;;5023527;28;20101;-68
2024/03/09 10:21:14;;;;;;;22.73;14.18;;;12.20;75.90;;;;;;5029832;28;20057;-66
2024/03/09 10:23:43;;;;;;;19.48;12.95;;;12.20;85.90;;;;;;5025791;28;20041;-66
2024/03/09 10:26:10;;;;;;;18.95;13.15;;;12.40;84.50;;;;;;5021191;28;20030;-67
2024/03/09 10:28:42;;;;;;;20.27;13.45;;;12.30;66.90;;;;;;5021483;28;20069;-67
2024/03/09 10:31:07;;;;;;;21.95;13.68;;;12.30;67.80;;;;;;5021193;28;20038;-67
2024/03/09 10:33:37;;;;;;;24.83;12.40;;;;;;;;;;5020865;28;20049;-66
2024/03/09 10:36:03;;;;;;;19.98;13.88;;;12.70;66.50;;;;;;5019531;28;20034;-67
2024/03/09 10:38:30;;;;;;;20.02;12.77;;;12.80;65.30;;;;;;5025717;28;20083;-67
2024/03/09 10:40:57;;;;;;;21.65;14.45;;;12.80;65.80;;;;;;5030614;28;20105;-67
2024/03/09 10:43:23;;;;;;;22.88;13.27;;;12.90;64.90;;;;;;5021049;28;20045;-66
2024/03/09 10:45:55;;;;;;;20.50;14.00;;;13.00;65.10;;;;;;5020887;28;20124;-67
2024/03/09 10:48:22;;;;;;;23.23;15.52;;;13.10;64.30;;;;;;5020922;28;20131;-67
2024/03/09 10:50:54;;;;;;;19.90;13.30;;;13.10;64.40;;;;;;5021030;28;20025;-68
2024/03/09 10:53:55;;;;;;;18.40;13.20;;;13.30;64.50;;;;;;5021039;28;20037;-68
2024/03/09 10:56:24;;;;;;;19.75;12.65;;;13.60;63.80;;;;;;5021003;28;20310;-68
2024/03/09 10:58:52;;;;;;;20.50;13.52;;;13.90;85.90;;;;;;5032395;28;20033;-68
2024/03/09 11:01:21;;;;;;;18.20;13.23;;;13.90;62.50;;;;;;5032158;28;20101;-68
2024/03/09 11:03:51;;;;;;;21.10;12.82;;;13.90;62.30;;;;;;5020498;28;20049;-67
2024/03/09 11:06:21;;;;;;;17.88;12.75;;;13.90;61.90;;;;;;5025542;28;20128;-67
2024/03/09 11:08:49;;;;;;;17.77;12.93;;;13.80;59.90;;;;;;5020427;28;20282;-65
2024/03/09 11:11:20;;;;;;;19.40;13.85;;;13.80;61.00;;;;;;5020287;28;20363;-65
2024/03/09 11:13:50;;;;;;;18.90;12.57;;;13.90;60.40;;;;;;5022598;28;20347;-66
2024/03/09 11:16:20;;;;;;;18.90;12.63;;;14.10;60.70;;;;;;5022599;28;20329;-66
2024/03/09 11:18:50;;;;;;;15.93;11.18;;;14.00;59.70;;;;;;5020258;28;20273;-67
2024/03/09 11:21:26;;;;;;;18.83;12.15;;;14.00;59.20;;;;;;5020566;28;20253;-66
2024/03/09 11:23:53;;;;;;;17.65;13.05;;;14.00;59.60;;;;;;5027835;28;20041;-67
2024/03/09 11:26:25;;;;;;;18.27;12.90;;;14.10;59.30;;;;;;5023751;28;20049;-66
2024/03/09 11:28:57;;;;;;;23.92;12.48;;;14.10;59.20;;;;;;5019988;28;20227;-66
2024/03/09 11:31:28;;;;;;;17.63;12.80;;;14.20;59.10;;;;;;5024956;28;20292;-68
2024/03/09 11:34:08;;;;;;;17.70;13.15;;;14.30;58.80;;;;;;5022850;28;20060;-67
2024/03/09 11:36:45;;;;;;;17.02;11.85;;;14.40;58.30;;;;;;5019963;28;20057;-69
2024/03/09 11:39:13;;;;;;;17.63;11.50;;;14.60;57.20;;;;;;5027273;28;20057;-66
2024/03/09 11:41:46;;;;;;;16.40;11.27;;;14.60;57.30;;;;;;5020526;28;20104;-68
2024/03/09 11:44:16;;;;;;;14.55;10.05;;;14.60;57.20;;;;;;5020302;28;20058;-69
2024/03/09 11:46:41;;;;;;;15.13;10.23;;;14.70;55.70;;;;;;5023317;28;20044;-68
2024/03/09 11:49:07;;;;;;;16.13;10.82;;;14.80;54.50;;;;;;5031559;28;20038;-69
2024/03/09 11:51:34;;;;;;;16.33;11.23;;;14.80;74.60;;;;;;5027774;28;20037;-67
2024/03/09 11:54:08;;;;;;;15.25;10.85;;;14.50;55.30;;;;;;5032573;28;20226;-68
2024/03/09 11:56:36;;;;;;;13.77;10.57;;;14.60;55.00;;;;;;5022689;28;20312;-70
2024/03/09 11:59:06;;;;;;;16.70;10.98;;;14.50;55.10;;;;;;5027598;28;20107;-67
2024/03/09 12:01:34;;;;;;;14.85;9.55;;;14.40;55.80;;;;;;5019474;28;20044;-68
2024/03/09 12:04:01;;;;;;;14.32;9.93;;;14.60;55.20;;;;;;5019616;28;20077;-67
2024/03/09 12:06:27;;;;;;;12.85;7.00;;;14.60;55.90;;;;;;5023858;28;20048;-68
2024/03/09 12:08:59;;;;;;;16.00;11.48;;;14.60;54.60;;;;;;5026857;28;20045;-67
2024/03/09 12:11:33;;;;;;;18.45;11.20;;;14.30;55.20;;;;;;5019322;28;20036;-69
2024/03/09 12:13:59;;;;;;;15.80;11.25;;;14.00;54.50;;;;;;5019517;28;20046;-68
2024/03/09 12:16:29;;;;;;;14.90;11.38;;;13.90;54.90;;;;;;5020162;28;20026;-67
2024/03/09 12:18:58;;;;;;;13.55;10.15;;;13.90;55.80;;;;;;5032548;28;20092;-65
2024/03/09 12:21:26;;;;;;;14.40;9.85;;;14.10;54.50;;;;;;5027282;28;20451;-66
2024/03/09 12:23:59;;;;;;;16.87;11.33;;;14.10;55.20;;;;;;5011373;28;20068;-66
2024/03/09 12:26:27;;;;;;;15.70;10.05;;;14.30;55.30;;;;;;5023543;28;20046;-66
2024/03/09 12:29:03;;;;;;;20.83;11.00;;;14.50;54.70;;;;;;5021525;28;20037;-66
2024/03/09 12:31:29;;;;;;;16.48;10.80;;;14.70;54.60;;;;;;5015780;28;20066;-67
2024/03/09 12:33:55;;;;;;;14.50;10.00;;;14.80;54.30;;;;;;5019442;28;20227;-68
2024/03/09 12:36:23;;;;;;;16.27;10.85;;;15.00;54.30;;;;;;5019200;28;20061;-70
2024/03/09 12:38:49;;;;;;;19.83;11.32;;;14.90;54.30;;;;;;5026268;28;20041;-68
2024/03/09 12:41:31;;;;;;;18.02;11.23;;;15.00;54.40;;;;;;5021658;28;20056;-68
2024/03/09 12:44:04;;;;;;;16.40;11.85;;;15.10;53.80;;;;;;5031756;28;20385;-72
2024/03/09 12:46:36;;;;;;;14.82;11.05;;;15.00;53.50;;;;;;5020973;28;20050;-75